Scotch Plains, New Jersey
Current Conditions -  °F | °C
As of 10:35 AM on Thursday 23 Oct 2014 (Local Time) from KLDJ Reporting Station
Drizzle Drizzle  
Wind Chill: 56°   Ceiling: 2800
Heat Index: 56°   Visibility: 10mi
Dew Point: 53°   Wind: 9mph
Humidity: 87%   Direction: 350°N
Pressure: 29.73"   Gusts: NA
Location:  40.65°N, 74.4°W
Report Text: KLDJ 231435Z AUTO 35008KT 10SM -DZ SCT018 OVC028 14/11 A2973 RMK AO2 T01350114
Loading
Personal Weather Stations






























Interactive Weather Map
Tropical Storm Tracking
New forecast layout! Learn more

10-Day Weather Forecast

Advertisements
Track Severe Weather on mobile